Time;durP1;ratioP1;P1;durP2;ratioP2;P2;SDS_P1;SDS_P2;PMS_P1;PMS_P2;Temp;Humidity;BMP_temperature;BMP_pressure;BME280_temperature;BME280_humidity;BME280_pressure;Samples;Min_cycle;Max_cycle;Signal;HPM_P1;HPM_P2
2023/06/03 00:01:24;;;;;;;2.05;1.77;;;20.40;76.40;;;;;;5047913;28;20689;-61
2023/06/03 00:03:51;;;;;;;2.58;1.92;;;20.40;76.40;;;;;;5047604;28;20227;-61
2023/06/03 00:06:18;;;;;;;2.58;2.10;;;20.40;76.40;;;;;;5047578;28;20218;-61
2023/06/03 00:08:45;;;;;;;2.40;2.20;;;20.40;76.40;;;;;;5051498;28;20196;-62
2023/06/03 00:11:13;;;;;;;2.30;2.10;;;20.40;76.30;;;;;;5050463;28;20198;-61
2023/06/03 00:13:40;;;;;;;2.65;2.45;;;20.40;76.20;;;;;;5041722;28;20275;-61
2023/06/03 00:16:08;;;;;;;2.45;2.25;;;20.40;76.30;;;;;;5034452;28;20203;-61
2023/06/03 00:18:35;;;;;;;3.45;3.15;;;20.40;76.30;;;;;;5043838;28;20215;-61
2023/06/03 00:21:02;;;;;;;3.33;2.45;;;20.40;76.30;;;;;;5047871;28;20245;-62
2023/06/03 00:23:31;;;;;;;3.13;2.65;;;20.40;76.30;;;;;;5046662;28;20582;-61
2023/06/03 00:25:58;;;;;;;2.53;2.00;;;20.40;76.30;;;;;;5036653;28;20202;-61
2023/06/03 00:28:25;;;;;;;2.55;2.35;;;20.40;76.30;;;;;;5046147;28;20238;-62
2023/06/03 00:30:51;;;;;;;2.92;2.30;;;20.40;76.30;;;;;;5040970;28;20195;-62
2023/06/03 00:33:19;;;;;;;2.72;2.53;;;20.40;76.20;;;;;;5048959;28;20198;-61
2023/06/03 00:35:46;;;;;;;2.90;2.25;;;20.40;76.20;;;;;;5042889;28;20252;-61
2023/06/03 00:38:13;;;;;;;2.78;2.58;;;20.40;76.90;;;;;;5051456;28;20219;-61
2023/06/03 00:40:39;;;;;;;2.97;2.60;;;20.40;76.10;;;;;;5040772;28;20200;-62
2023/06/03 00:43:06;;;;;;;2.78;2.03;;;20.40;76.10;;;;;;5037417;28;20191;-60
2023/06/03 00:45:33;;;;;;;2.40;2.20;;;20.40;76.10;;;;;;5043349;28;20196;-61
2023/06/03 00:48:00;;;;;;;2.78;2.15;;;20.40;76.00;;;;;;5046547;28;20223;-61
2023/06/03 00:50:28;;;;;;;2.60;2.25;;;20.40;76.10;;;;;;5046803;28;20199;-61
2023/06/03 00:52:55;;;;;;;2.47;2.20;;;20.40;76.20;;;;;;5051208;28;20203;-61
2023/06/03 00:55:22;;;;;;;2.10;1.98;;;20.40;76.10;;;;;;5045297;28;20659;-60
2023/06/03 00:57:51;;;;;;;3.08;2.05;;;20.40;76.00;;;;;;5041740;28;20560;-61
2023/06/03 01:00:17;;;;;;;2.63;2.30;;;20.40;75.90;;;;;;5039502;28;20199;-61
2023/06/03 01:02:46;;;;;;;2.17;1.95;;;20.40;75.90;;;;;;5052107;28;20200;-61
2023/06/03 01:05:13;;;;;;;2.10;1.90;;;20.40;75.90;;;;;;5048703;28;20196;-60
2023/06/03 01:07:51;;;;;;;2.85;2.65;;;20.40;75.90;;;;;;5049703;28;20277;-61
2023/06/03 01:10:24;;;;;;;3.28;2.78;;;20.40;75.90;;;;;;5050193;28;20369;-61
2023/06/03 01:12:58;;;;;;;2.90;2.58;;;20.40;75.90;;;;;;5048687;28;20196;-61
2023/06/03 01:15:27;;;;;;;5.28;2.30;;;20.40;75.90;;;;;;5061788;28;20256;-62
2023/06/03 01:17:58;;;;;;;2.95;2.20;;;20.40;75.80;;;;;;5050702;28;20698;-60
2023/06/03 01:20:26;;;;;;;3.05;2.75;;;20.30;75.80;;;;;;5052644;28;20575;-61
2023/06/03 01:23:03;;;;;;;2.95;2.30;;;20.40;75.90;;;;;;5046540;28;20222;-61
2023/06/03 01:25:31;;;;;;;3.40;2.53;;;20.40;75.90;;;;;;5046248;28;20206;-62
2023/06/03 01:27:58;;;;;;;2.95;2.45;;;20.40;75.90;;;;;;5044355;28;20222;-61
2023/06/03 01:30:25;;;;;;;4.70;2.03;;;20.30;75.80;;;;;;5054718;28;20250;-61
2023/06/03 01:32:53;;;;;;;2.20;1.88;;;20.30;75.70;;;;;;5050853;28;20210;-62
2023/06/03 01:35:20;;;;;;;3.55;2.85;;;20.30;75.70;;;;;;5052658;28;20264;-61
2023/06/03 01:37:47;;;;;;;1.98;1.77;;;20.40;75.80;;;;;;5048467;28;20646;-61
2023/06/03 01:40:14;;;;;;;3.28;3.08;;;20.30;75.70;;;;;;5048018;28;20291;-61
2023/06/03 01:42:42;;;;;;;3.08;2.33;;;20.40;75.70;;;;;;5048693;28;20199;-62
2023/06/03 01:45:10;;;;;;;4.38;2.75;;;20.30;75.60;;;;;;5053894;28;20191;-61
2023/06/03 01:47:37;;;;;;;2.47;2.28;;;20.30;75.60;;;;;;5050643;28;20238;-60
2023/06/03 01:50:04;;;;;;;2.60;2.40;;;20.30;75.60;;;;;;5045261;28;20200;-62
2023/06/03 01:52:30;;;;;;;2.83;2.40;;;20.30;76.40;;;;;;5050510;28;20360;-61
2023/06/03 01:54:57;;;;;;;2.20;2.00;;;20.30;75.50;;;;;;5055631;28;20741;-61
2023/06/03 01:57:24;;;;;;;3.95;2.30;;;20.30;75.60;;;;;;5047485;28;20195;-61
2023/06/03 01:59:52;;;;;;;2.45;2.25;;;20.30;75.60;;;;;;5044020;28;20581;-60
2023/06/03 02:02:19;;;;;;;2.53;2.33;;;20.30;75.40;;;;;;5044417;28;20283;-60
2023/06/03 02:04:46;;;;;;;2.30;2.10;;;20.30;75.60;;;;;;5047463;28;20196;-61
2023/06/03 02:07:13;;;;;;;2.20;2.03;;;20.30;75.40;;;;;;5044112;28;20224;-61
2023/06/03 02:09:41;;;;;;;2.30;2.10;;;20.30;75.40;;;;;;5054136;28;20195;-60
2023/06/03 02:12:08;;;;;;;2.63;1.88;;;20.30;75.50;;;;;;5049392;28;20192;-61
2023/06/03 02:14:36;;;;;;;2.00;1.73;;;20.30;75.40;;;;;;5047429;28;20223;-61
2023/06/03 02:17:06;;;;;;;2.10;1.85;;;20.30;75.40;;;;;;5046409;28;20208;-60
2023/06/03 02:19:32;;;;;;;2.10;1.90;;;20.30;75.40;;;;;;5042306;28;20265;-62
2023/06/03 02:21:59;;;;;;;1.88;1.70;;;20.30;75.40;;;;;;5054468;28;20333;-61
2023/06/03 02:24:28;;;;;;;2.40;2.20;;;20.30;75.40;;;;;;5045322;28;20686;-61
2023/06/03 02:26:56;;;;;;;3.03;1.88;;;20.30;75.40;;;;;;5043988;28;20224;-62
2023/06/03 02:29:25;;;;;;;2.15;1.90;;;20.30;75.30;;;;;;5045057;28;20199;-60
2023/06/03 02:31:53;;;;;;;3.03;1.80;;;20.30;75.40;;;;;;5043561;28;20245;-62
2023/06/03 02:34:22;;;;;;;2.40;2.20;;;20.30;75.40;;;;;;5043371;28;20203;-60
2023/06/03 02:36:49;;;;;;;2.90;2.58;;;20.30;75.30;;;;;;5057469;28;20207;-61
2023/06/03 02:39:16;;;;;;;2.20;2.00;;;20.30;75.30;;;;;;5050976;28;20206;-60
2023/06/03 02:41:44;;;;;;;2.50;2.30;;;20.30;75.30;;;;;;5048360;28;20286;-60
2023/06/03 02:44:11;;;;;;;3.72;2.40;;;20.30;75.30;;;;;;5039921;28;20663;-61
2023/06/03 02:46:38;;;;;;;3.33;2.13;;;20.30;75.30;;;;;;5047365;28;20207;-61
2023/06/03 02:49:06;;;;;;;2.38;2.08;;;20.30;75.30;;;;;;5050901;28;20569;-61
2023/06/03 02:51:35;;;;;;;3.03;2.20;;;20.30;75.30;;;;;;5048954;28;20198;-61
2023/06/03 02:54:01;;;;;;;2.05;1.83;;;20.30;75.30;;;;;;5049720;28;20199;-60
2023/06/03 02:56:31;;;;;;;2.42;2.22;;;20.30;75.30;;;;;;5044822;28;20199;-61
2023/06/03 02:58:57;;;;;;;1.85;1.75;;;20.30;75.30;;;;;;5038830;28;20664;-60
2023/06/03 03:01:25;;;;;;;2.10;1.90;;;20.30;75.20;;;;;;5049004;28;20207;-61
2023/06/03 03:03:51;;;;;;;2.38;2.17;;;20.20;75.20;;;;;;5046225;28;20686;-61
2023/06/03 03:06:19;;;;;;;3.45;3.15;;;20.20;75.10;;;;;;5046975;28;20199;-61
2023/06/03 03:08:47;;;;;;;2.40;2.20;;;20.30;75.30;;;;;;5046404;28;20310;-61
2023/06/03 03:11:15;;;;;;;2.10;1.90;;;20.30;75.20;;;;;;5050280;28;20196;-61
2023/06/03 03:13:41;;;;;;;1.92;1.80;;;20.30;75.20;;;;;;5030473;28;20214;-61
2023/06/03 03:16:08;;;;;;;1.85;1.70;;;20.30;75.20;;;;;;5045356;28;20203;-62
2023/06/03 03:18:36;;;;;;;3.22;2.35;;;20.30;75.10;;;;;;5045554;28;20211;-62
2023/06/03 03:21:02;;;;;;;2.53;2.33;;;20.30;75.20;;;;;;5046507;28;20188;-61
2023/06/03 03:23:30;;;;;;;2.22;2.03;;;20.30;75.20;;;;;;5052849;28;20310;-61
2023/06/03 03:26:00;;;;;;;2.45;2.10;;;20.20;75.10;;;;;;5043284;28;20282;-61
2023/06/03 03:28:26;;;;;;;2.38;2.17;;;20.30;75.10;;;;;;5054120;28;20231;-61
2023/06/03 03:30:55;;;;;;;2.58;2.00;;;20.20;75.00;;;;;;5044314;28;20192;-61
2023/06/03 03:33:22;;;;;;;2.72;2.10;;;20.20;75.00;;;;;;5048680;28;20196;-61
2023/06/03 03:35:49;;;;;;;3.05;2.03;;;20.20;75.00;;;;;;5049772;28;20666;-61
2023/06/03 03:38:16;;;;;;;2.33;2.15;;;20.30;75.10;;;;;;5048146;28;20200;-61
2023/06/03 03:40:43;;;;;;;3.78;2.75;;;20.20;74.90;;;;;;5051716;28;20651;-61
2023/06/03 03:43:15;;;;;;;3.17;2.15;;;20.20;75.00;;;;;;5043854;28;20199;-61
2023/06/03 03:45:42;;;;;;;2.03;1.83;;;20.20;75.00;;;;;;5043129;28;20282;-61
2023/06/03 03:48:15;;;;;;;2.08;1.95;;;20.20;75.00;;;;;;5045821;28;20746;-61
2023/06/03 03:50:44;;;;;;;2.95;2.03;;;20.20;74.90;;;;;;5046609;28;20241;-62
2023/06/03 03:53:13;;;;;;;2.15;1.95;;;20.20;74.80;;;;;;5050447;28;20253;-61
2023/06/03 03:55:42;;;;;;;2.03;1.83;;;20.20;75.00;;;;;;5042187;28;20630;-61
2023/06/03 03:58:28;;;;;;;2.40;1.77;;;20.20;74.90;;;;;;5043580;28;20257;-61
2023/06/03 04:00:57;;;;;;;2.03;1.90;;;20.20;74.80;;;;;;5041278;28;20208;-61
2023/06/03 04:03:25;;;;;;;2.17;1.92;;;20.20;74.80;;;;;;5044485;28;20203;-62
2023/06/03 04:05:53;;;;;;;2.67;2.20;;;20.30;75.00;;;;;;5044057;28;20656;-60
2023/06/03 04:08:39;;;;;;;1.98;1.88;;;20.20;74.80;;;;;;5044149;28;21095;-62
2023/06/03 04:11:07;;;;;;;2.50;2.30;;;20.20;74.80;;;;;;5052536;28;20195;-61
2023/06/03 04:13:37;;;;;;;3.22;2.00;;;20.20;74.80;;;;;;5039888;28;20783;-61
2023/06/03 04:16:08;;;;;;;2.00;1.90;;;20.20;74.80;;;;;;5043381;28;21167;-62
2023/06/03 04:18:40;;;;;;;2.22;1.70;;;20.20;74.80;;;;;;5041341;28;20609;-61
2023/06/03 04:21:07;;;;;;;2.20;2.05;;;20.20;74.70;;;;;;5044421;28;20288;-61
2023/06/03 04:23:34;;;;;;;2.30;2.00;;;20.20;74.70;;;;;;5046806;28;20224;-61
2023/06/03 04:26:02;;;;;;;4.00;2.17;;;20.20;74.70;;;;;;5042529;28;20245;-61
2023/06/03 04:28:29;;;;;;;2.70;2.22;;;20.20;74.80;;;;;;5042696;28;20393;-60
2023/06/03 04:30:57;;;;;;;2.25;2.15;;;20.20;74.80;;;;;;5045447;28;20200;-62
2023/06/03 04:33:24;;;;;;;1.80;1.70;;;20.20;74.70;;;;;;5040407;28;20282;-61
2023/06/03 04:35:51;;;;;;;2.05;1.70;;;20.20;74.70;;;;;;5047755;28;20287;-59
2023/06/03 04:38:17;;;;;;;1.90;1.80;;;20.20;74.70;;;;;;5047602;28;20287;-61
2023/06/03 04:40:46;;;;;;;2.30;1.92;;;20.20;74.70;;;;;;5041764;28;20207;-61
2023/06/03 04:43:14;;;;;;;2.72;2.53;;;20.20;74.70;;;;;;5047522;28;20199;-61
2023/06/03 04:45:44;;;;;;;2.22;2.03;;;20.20;74.70;;;;;;5034670;28;20192;-61
2023/06/03 04:48:12;;;;;;;2.10;1.88;;;20.20;74.70;;;;;;5047226;28;20222;-60
2023/06/03 04:50:39;;;;;;;1.90;1.77;;;20.20;74.60;;;;;;5053366;28;20571;-61
2023/06/03 04:53:05;;;;;;;2.08;1.90;;;20.20;74.70;;;;;;5054036;28;20234;-61
2023/06/03 04:55:32;;;;;;;2.00;1.80;;;20.20;74.70;;;;;;5046340;28;20203;-60
2023/06/03 04:58:00;;;;;;;2.20;2.00;;;20.20;74.60;;;;;;5043578;28;20262;-60
2023/06/03 05:00:27;;;;;;;1.73;1.63;;;20.10;74.50;;;;;;5052196;28;20195;-61
2023/06/03 05:02:56;;;;;;;1.70;1.60;;;20.20;74.70;;;;;;5045286;28;20195;-61
2023/06/03 05:05:25;;;;;;;1.90;1.52;;;20.20;74.60;;;;;;5051237;28;20207;-61
2023/06/03 05:07:52;;;;;;;2.40;2.20;;;20.20;74.60;;;;;;5053422;28;20579;-62
2023/06/03 05:10:19;;;;;;;2.42;1.95;;;20.20;74.60;;;;;;5045191;28;20469;-61
2023/06/03 05:12:46;;;;;;;2.08;1.88;;;20.20;74.60;;;;;;5040962;28;20200;-61
2023/06/03 05:15:13;;;;;;;1.95;1.65;;;20.20;74.60;;;;;;5042417;28;20269;-60
2023/06/03 05:17:40;;;;;;;2.38;2.10;;;20.10;74.50;;;;;;5049326;28;20207;-61
2023/06/03 05:20:08;;;;;;;1.95;1.50;;;20.20;74.60;;;;;;5049985;28;20508;-60
2023/06/03 05:22:36;;;;;;;1.90;1.80;;;20.10;74.50;;;;;;5048751;28;20571;-61
2023/06/03 05:25:04;;;;;;;1.80;1.63;;;20.20;74.60;;;;;;5050111;28;20673;-60
2023/06/03 05:27:31;;;;;;;1.95;1.75;;;20.20;74.60;;;;;;5048063;28;20192;-62
2023/06/03 05:29:57;;;;;;;1.50;1.30;;;20.20;74.60;;;;;;5043031;28;20196;-61
2023/06/03 05:32:24;;;;;;;2.17;1.98;;;20.10;74.50;;;;;;5053004;28;20651;-62
2023/06/03 05:34:51;;;;;;;2.42;1.77;;;20.20;74.70;;;;;;5048194;28;20199;-60
2023/06/03 05:37:18;;;;;;;2.03;1.85;;;20.10;75.30;;;;;;5046309;28;20200;-61
2023/06/03 05:39:46;;;;;;;2.22;1.90;;;20.10;74.40;;;;;;5052081;28;20250;-61
2023/06/03 05:42:12;;;;;;;2.50;1.95;;;20.20;74.60;;;;;;5049228;28;20200;-61
2023/06/03 05:44:39;;;;;;;1.83;1.73;;;20.20;74.70;;;;;;5049553;28;20199;-61
2023/06/03 05:47:06;;;;;;;2.10;1.80;;;20.10;74.60;;;;;;5048127;28;20419;-62
2023/06/03 05:49:32;;;;;;;2.10;1.73;;;20.20;74.80;;;;;;5040808;28;20219;-61
2023/06/03 05:51:59;;;;;;;3.50;2.17;;;20.20;74.80;;;;;;5052645;28;20203;-60
2023/06/03 05:54:28;;;;;;;2.28;1.63;;;20.20;74.80;;;;;;5050101;28;20203;-61
2023/06/03 05:56:56;;;;;;;2.30;1.65;;;20.20;74.80;;;;;;5047514;28;20196;-61
2023/06/03 05:59:23;;;;;;;2.60;2.00;;;20.10;74.70;;;;;;5040445;28;20265;-61
2023/06/03 06:01:49;;;;;;;1.77;1.25;;;20.10;74.80;;;;;;5043899;28;20199;-62
2023/06/03 06:04:16;;;;;;;1.40;1.20;;;20.10;74.70;;;;;;5040277;28;20245;-61
2023/06/03 06:06:43;;;;;;;2.53;1.55;;;20.10;74.60;;;;;;5047646;28;20204;-62
2023/06/03 06:09:10;;;;;;;2.30;2.10;;;20.10;74.80;;;;;;5045406;28;20220;-61
2023/06/03 06:11:36;;;;;;;2.03;1.83;;;20.10;74.70;;;;;;5042665;28;20736;-61
2023/06/03 06:14:04;;;;;;;2.40;1.52;;;20.20;75.00;;;;;;5048137;28;20713;-61
2023/06/03 06:16:31;;;;;;;1.80;1.70;;;20.10;74.90;;;;;;5043093;28;20204;-61
2023/06/03 06:18:58;;;;;;;1.90;1.70;;;20.10;74.90;;;;;;5045821;28;20210;-61
2023/06/03 06:21:25;;;;;;;2.08;1.88;;;20.10;74.90;;;;;;5050307;28;20252;-61
2023/06/03 06:23:52;;;;;;;3.20;1.58;;;20.10;74.90;;;;;;5040579;28;20220;-60
2023/06/03 06:26:18;;;;;;;3.88;1.85;;;20.10;75.00;;;;;;5044766;28;20254;-61
2023/06/03 06:28:46;;;;;;;2.28;1.65;;;20.10;75.00;;;;;;5039506;28;20207;-61
2023/06/03 06:31:15;;;;;;;2.47;1.60;;;20.10;75.00;;;;;;5048184;28;20287;-61
2023/06/03 06:33:47;;;;;;;2.85;1.50;;;20.10;75.00;;;;;;5045332;28;20563;-61
2023/06/03 06:36:28;;;;;;;2.20;2.00;;;20.10;75.10;;;;;;5047043;28;20202;-60
2023/06/03 06:38:55;;;;;;;2.97;1.52;;;20.10;75.10;;;;;;5049003;28;20614;-61
2023/06/03 06:41:22;;;;;;;2.08;1.88;;;20.10;75.00;;;;;;5042744;28;20340;-61
2023/06/03 06:43:48;;;;;;;1.88;1.65;;;20.10;75.10;;;;;;5035743;28;20291;-62
2023/06/03 06:46:16;;;;;;;1.75;1.52;;;20.10;75.20;;;;;;5043030;28;20204;-62
2023/06/03 06:48:43;;;;;;;2.95;1.83;;;20.10;75.20;;;;;;5045306;28;20212;-63
2023/06/03 06:51:10;;;;;;;3.15;2.22;;;20.10;75.30;;;;;;5044527;28;20670;-61
2023/06/03 06:53:37;;;;;;;4.80;1.55;;;20.10;75.10;;;;;;5039703;28;20196;-63
2023/06/03 06:56:05;;;;;;;1.65;1.50;;;20.10;75.10;;;;;;5044496;28;20199;-61
2023/06/03 06:58:35;;;;;;;1.98;1.77;;;20.10;75.00;;;;;;5048657;28;20618;-63
2023/06/03 07:01:05;;;;;;;2.60;1.40;;;20.10;74.80;;;;;;5045007;28;20248;-62
2023/06/03 07:03:34;;;;;;;3.15;2.45;;;20.10;74.10;;;;;;5044291;28;20273;-61
2023/06/03 07:06:01;;;;;;;2.50;1.40;;;20.00;72.00;;;;;;5047554;28;20567;-63
2023/06/03 07:08:28;;;;;;;2.67;1.20;;;20.00;69.90;;;;;;5051301;28;20226;-63
2023/06/03 07:10:56;;;;;;;4.97;1.30;;;19.90;67.80;;;;;;5040089;28;20893;-63
2023/06/03 07:13:24;;;;;;;1.95;1.52;;;19.90;67.60;;;;;;5040879;28;20262;-61
2023/06/03 07:15:50;;;;;;;5.68;1.60;;;19.90;66.30;;;;;;5046529;28;20242;-63
2023/06/03 07:18:17;;;;;;;3.65;1.50;;;19.90;65.80;;;;;;5046199;28;20204;-60
2023/06/03 07:20:47;;;;;;;6.45;1.10;;;19.80;64.90;;;;;;5046181;28;20200;-62
2023/06/03 07:23:22;;;;;;;1.90;1.30;;;19.80;65.60;;;;;;5048706;28;20261;-61
2023/06/03 07:25:50;;;;;;;1.75;1.23;;;19.80;66.30;;;;;;5050754;28;20540;-62
2023/06/03 07:28:18;;;;;;;3.05;1.40;;;19.80;66.40;;;;;;5045828;28;20195;-62
2023/06/03 07:30:47;;;;;;;1.55;1.40;;;19.80;66.70;;;;;;5047461;28;20233;-63
2023/06/03 07:33:25;;;;;;;3.50;1.38;;;19.90;68.50;;;;;;5039788;28;23279;-63
2023/06/03 07:35:55;;;;;;;3.53;1.35;;;19.90;69.10;;;;;;5039978;28;20287;-61
2023/06/03 07:38:55;;;;;;;8.65;1.75;;;19.90;69.50;;;;;;5047701;28;20199;-64
2023/06/03 07:41:42;;;;;;;3.85;1.77;;;19.90;69.60;;;;;;5046439;28;20659;-63
2023/06/03 07:44:10;;;;;;;5.30;1.50;;;19.90;69.80;;;;;;5039147;28;20199;-63
2023/06/03 07:46:42;;;;;;;2.25;1.40;;;19.90;69.60;;;;;;5046584;28;20203;-64
2023/06/03 07:49:10;;;;;;;3.83;1.13;;;20.00;69.10;;;;;;5040903;28;20223;-63
2023/06/03 07:51:42;;;;;;;1.92;1.08;;;20.00;69.20;;;;;;5047515;28;20254;-63
2023/06/03 07:54:10;;;;;;;2.13;1.33;;;20.00;68.80;;;;;;5037390;28;20196;-62
2023/06/03 07:56:37;;;;;;;6.45;1.95;;;20.00;68.70;;;;;;5039953;28;20254;-61
2023/06/03 07:59:09;;;;;;;1.10;1.00;;;20.00;68.60;;;;;;5041408;28;20203;-63
2023/06/03 08:01:36;;;;;;;1.40;1.20;;;19.90;68.40;;;;;;5046193;28;20195;-64
2023/06/03 08:04:05;;;;;;;2.28;1.45;;;19.90;68.40;;;;;;5044708;28;20286;-63
2023/06/03 08:06:36;;;;;;;2.38;1.30;;;20.00;68.30;;;;;;5044720;28;20289;-64
2023/06/03 08:09:05;;;;;;;5.00;1.20;;;19.90;68.20;;;;;;5043833;28;20223;-63
2023/06/03 08:11:36;;;;;;;1.63;1.20;;;20.00;67.90;;;;;;5040333;28;20274;-64
2023/06/03 08:14:02;;;;;;;1.85;1.52;;;20.00;68.10;;;;;;5041959;28;20680;-64
2023/06/03 08:16:29;;;;;;;1.20;1.10;;;19.90;68.00;;;;;;5044942;28;20200;-62
2023/06/03 08:18:55;;;;;;;2.13;1.10;;;19.90;67.80;;;;;;5044113;28;20207;-63
2023/06/03 08:21:28;;;;;;;4.50;1.40;;;19.90;67.60;;;;;;5045614;28;20200;-63
2023/06/03 08:23:55;;;;;;;1.75;1.55;;;20.00;67.40;;;;;;5052575;28;20214;-63
2023/06/03 08:26:23;;;;;;;2.67;1.42;;;19.90;67.20;;;;;;5055333;28;20191;-63
2023/06/03 08:28:50;;;;;;;2.40;1.10;;;19.90;67.30;;;;;;5045591;28;20223;-64
2023/06/03 08:31:16;;;;;;;2.97;1.75;;;19.90;67.20;;;;;;5039977;28;20260;-62
2023/06/03 08:33:43;;;;;;;2.78;1.77;;;19.90;67.10;;;;;;5035597;28;20204;-61
2023/06/03 08:36:11;;;;;;;1.77;1.33;;;19.90;67.20;;;;;;5031516;28;20266;-61
2023/06/03 08:38:39;;;;;;;2.63;1.20;;;19.90;67.00;;;;;;5031661;28;20192;-63
2023/06/03 08:41:07;;;;;;;2.03;1.30;;;19.90;66.80;;;;;;5047656;28;20191;-64
2023/06/03 08:43:51;;;;;;;2.10;1.27;;;19.90;66.70;;;;;;5046888;28;20199;-63
2023/06/03 08:46:23;;;;;;;1.58;1.20;;;19.90;66.70;;;;;;5041122;28;20191;-64
2023/06/03 08:48:57;;;;;;;3.22;1.48;;;19.90;66.80;;;;;;5038302;28;20282;-64
2023/06/03 08:51:24;;;;;;;2.25;1.40;;;20.00;66.90;;;;;;5054384;28;20253;-64
2023/06/03 08:53:52;;;;;;;4.05;1.00;;;19.90;66.70;;;;;;5051103;28;20191;-64
2023/06/03 08:56:20;;;;;;;1.30;0.98;;;19.90;66.80;;;;;;5036713;28;20240;-60
2023/06/03 08:58:50;;;;;;;3.10;1.40;;;20.00;66.80;;;;;;5038783;28;20209;-61
2023/06/03 09:01:19;;;;;;;1.75;1.23;;;20.00;66.60;;;;;;5043319;28;20250;-64
2023/06/03 09:03:46;;;;;;;5.13;1.60;;;19.90;66.50;;;;;;5052415;28;20203;-63
2023/06/03 09:06:14;;;;;;;3.83;1.70;;;19.90;66.60;;;;;;5043931;28;20200;-62
2023/06/03 09:08:41;;;;;;;2.78;2.15;;;19.90;66.70;;;;;;5043270;28;20187;-64
2023/06/03 09:11:11;;;;;;;7.25;2.15;;;20.00;66.90;;;;;;5045425;28;20575;-64
2023/06/03 09:13:39;;;;;;;2.40;1.92;;;20.00;67.00;;;;;;5037370;28;20231;-63
2023/06/03 09:16:09;;;;;;;3.55;1.92;;;20.00;67.10;;;;;;5046806;28;20203;-64
2023/06/03 09:18:35;;;;;;;4.68;2.35;;;20.00;67.20;;;;;;5042496;28;20294;-63
2023/06/03 09:21:03;;;;;;;7.72;2.60;;;20.00;67.30;;;;;;5049601;28;20286;-64
2023/06/03 09:23:31;;;;;;;3.30;2.10;;;20.00;67.50;;;;;;5048080;28;20215;-63
2023/06/03 09:25:57;;;;;;;4.05;2.47;;;20.00;67.60;;;;;;5051505;28;20203;-63
2023/06/03 09:28:24;;;;;;;4.95;3.38;;;20.00;67.60;;;;;;5042125;28;20204;-64
2023/06/03 09:30:51;;;;;;;5.80;2.50;;;20.00;67.80;;;;;;5042081;28;20223;-60
2023/06/03 09:33:19;;;;;;;5.07;2.75;;;20.00;67.90;;;;;;5038681;28;20538;-63
2023/06/03 09:36:10;;;;;;;8.55;3.55;;;20.00;68.10;;;;;;5047811;28;20208;-63
2023/06/03 09:38:50;;;;;;;7.55;3.50;;;20.00;68.20;;;;;;5047173;28;20654;-63
2023/06/03 09:41:18;;;;;;;6.88;3.75;;;20.00;68.30;;;;;;5046341;28;20289;-64
2023/06/03 09:43:56;;;;;;;4.70;2.72;;;20.00;69.20;;;;;;5049895;28;20192;-64
2023/06/03 09:46:24;;;;;;;6.30;2.80;;;20.10;68.60;;;;;;5041223;28;20203;-64
2023/06/03 09:48:52;;;;;;;4.32;3.38;;;20.10;68.70;;;;;;5039173;28;20200;-63
2023/06/03 09:51:19;;;;;;;5.15;2.75;;;20.10;68.80;;;;;;5052667;28;20191;-64
2023/06/03 09:53:46;;;;;;;3.88;3.03;;;20.00;68.70;;;;;;5050560;28;20200;-62
2023/06/03 09:56:22;;;;;;;3.60;2.63;;;20.00;68.80;;;;;;5058534;28;20241;-64
2023/06/03 09:58:51;;;;;;;4.07;3.03;;;20.10;68.90;;;;;;5055403;28;20223;-61
2023/06/03 10:01:29;;;;;;;4.55;2.85;;;20.10;68.80;;;;;;5048563;28;20199;-60
2023/06/03 10:04:01;;;;;;;5.05;2.42;;;20.10;68.60;;;;;;5048776;28;20206;-61
2023/06/03 10:06:27;;;;;;;3.55;2.75;;;20.10;69.20;;;;;;5046236;28;20204;-61
2023/06/03 10:08:54;;;;;;;7.05;2.78;;;20.10;68.40;;;;;;5042168;28;20571;-56
2023/06/03 10:11:22;;;;;;;2.60;1.75;;;20.10;68.30;;;;;;5046456;28;20235;-61
2023/06/03 10:13:49;;;;;;;3.92;2.40;;;20.10;68.10;;;;;;5045903;28;20196;-58
2023/06/03 10:16:15;;;;;;;7.72;2.60;;;20.10;67.80;;;;;;5045284;28;20191;-57
2023/06/03 10:18:43;;;;;;;3.60;2.15;;;20.10;67.90;;;;;;5037927;28;20668;-59
2023/06/03 10:21:13;;;;;;;5.03;2.05;;;20.10;67.90;;;;;;5046208;28;20245;-60
2023/06/03 10:23:42;;;;;;;3.58;2.00;;;20.10;67.80;;;;;;5047543;28;20232;-59
2023/06/03 10:26:09;;;;;;;3.10;2.35;;;20.10;67.80;;;;;;5045723;28;20590;-61
2023/06/03 10:28:37;;;;;;;4.82;2.25;;;20.10;67.70;;;;;;5043042;28;20191;-58
2023/06/03 10:31:05;;;;;;;5.22;2.33;;;20.10;67.80;;;;;;5044822;28;20389;-60
2023/06/03 10:33:32;;;;;;;3.90;1.95;;;20.00;67.70;;;;;;5041974;28;20632;-60
2023/06/03 10:36:03;;;;;;;13.18;2.30;;;20.10;67.80;;;;;;5043127;28;20263;-61
2023/06/03 10:38:32;;;;;;;2.80;1.80;;;20.10;67.60;;;;;;5044112;28;20602;-60
2023/06/03 10:41:00;;;;;;;4.30;1.60;;;20.10;67.20;;;;;;5041949;28;20199;-58
2023/06/03 10:43:28;;;;;;;3.85;1.58;;;20.10;66.40;;;;;;5042874;28;20659;-60
2023/06/03 10:45:57;;;;;;;1.92;1.40;;;20.00;66.00;;;;;;5047410;28;20203;-60
2023/06/03 10:48:25;;;;;;;4.38;2.00;;;20.00;65.60;;;;;;5048837;28;20674;-59
2023/06/03 10:51:01;;;;;;;2.38;1.10;;;20.00;65.00;;;;;;5046236;28;20220;-61
2023/06/03 10:53:40;;;;;;;5.20;1.83;;;20.00;64.60;;;;;;5036617;28;20223;-59
2023/06/03 10:56:13;;;;;;;2.53;1.33;;;20.00;64.20;;;;;;5046142;28;20655;-58
2023/06/03 10:58:42;;;;;;;9.13;1.60;;;20.00;63.40;;;;;;5045574;28;20276;-60
2023/06/03 11:01:09;;;;;;;2.83;1.40;;;20.00;62.90;;;;;;5033794;28;20551;-60
2023/06/03 11:04:13;;;;;;;3.15;1.33;;;20.00;62.30;;;;;;5041717;28;20199;-60
2023/06/03 11:06:40;;;;;;;2.08;1.73;;;20.00;61.60;;;;;;5043267;28;20244;-60
2023/06/03 11:09:12;;;;;;;2.58;1.73;;;20.00;62.10;;;;;;5044828;28;20291;-59
2023/06/03 11:12:05;;;;;;;1.17;0.98;;;19.90;61.00;;;;;;5043913;28;20296;-59
2023/06/03 11:15:06;;;;;;;3.33;1.42;;;19.90;60.50;;;;;;5035796;28;20874;-60
2023/06/03 11:17:32;;;;;;;2.65;1.20;;;20.00;61.00;;;;;;5039220;28;20555;-59
2023/06/03 11:20:00;;;;;;;2.90;1.10;;;20.00;60.70;;;;;;5044078;28;20203;-60
2023/06/03 11:22:46;;;;;;;1.30;1.10;;;20.00;60.50;;;;;;5045453;28;20542;-59
2023/06/03 11:25:38;;;;;;;5.53;1.30;;;20.00;60.90;;;;;;5044101;28;20281;-59
2023/06/03 11:28:34;;;;;;;3.72;1.15;;;19.90;60.30;;;;;;5032964;28;20219;-60
2023/06/03 11:31:03;;;;;;;2.95;1.23;;;20.00;60.70;;;;;;5050544;28;20224;-59
2023/06/03 11:33:30;;;;;;;3.78;1.10;;;20.00;60.40;;;;;;5044465;28;20310;-59
2023/06/03 11:35:57;;;;;;;2.88;1.75;;;20.00;60.20;;;;;;5045291;28;20291;-60
2023/06/03 11:38:58;;;;;;;1.90;1.45;;;20.00;60.00;;;;;;5034587;28;20199;-60
2023/06/03 11:42:08;;;;;;;16.30;2.42;;;19.90;59.90;;;;;;5039990;28;20260;-60
2023/06/03 11:44:36;;;;;;;3.45;1.10;;;19.90;59.60;;;;;;5039554;28;20651;-60
2023/06/03 11:47:04;;;;;;;1.83;1.20;;;19.90;59.70;;;;;;5051050;28;20191;-60
2023/06/03 11:49:34;;;;;;;2.15;1.33;;;20.00;59.80;;;;;;5044712;28;20188;-60
2023/06/03 11:52:01;;;;;;;2.00;1.58;;;19.90;59.80;;;;;;5042093;28;20316;-60
2023/06/03 11:54:28;;;;;;;2.22;1.13;;;20.00;59.40;;;;;;5049425;28;20257;-60
2023/06/03 11:56:57;;;;;;;3.33;1.08;;;19.90;59.00;;;;;;5039685;28;20204;-60
2023/06/03 11:59:28;;;;;;;1.80;1.10;;;20.00;59.40;;;;;;5049370;28;20208;-60
2023/06/03 12:02:00;;;;;;;2.20;1.40;;;19.90;59.10;;;;;;5041673;28;20204;-59
2023/06/03 12:04:27;;;;;;;2.45;0.95;;;19.90;59.40;;;;;;5039094;28;20199;-60
2023/06/03 12:06:54;;;;;;;1.98;1.13;;;20.00;59.10;;;;;;5041456;28;20191;-60
2023/06/03 12:09:22;;;;;;;1.80;0.98;;;20.00;59.00;;;;;;5045660;28;20199;-60
2023/06/03 12:11:49;;;;;;;1.40;1.25;;;19.90;59.00;;;;;;5046833;28;20306;-60
2023/06/03 12:14:32;;;;;;;3.33;1.10;;;20.00;59.20;;;;;;5048589;28;20199;-60
2023/06/03 12:17:10;;;;;;;1.55;1.30;;;19.90;59.10;;;;;;5037388;28;20966;-60
2023/06/03 12:19:39;;;;;;;1.30;0.75;;;19.90;59.00;;;;;;5037357;28;20624;-60
2023/06/03 12:22:06;;;;;;;1.50;0.90;;;20.00;59.00;;;;;;5040926;28;20222;-60
2023/06/03 12:24:33;;;;;;;1.83;0.95;;;20.00;59.10;;;;;;5044358;28;20576;-60
2023/06/03 12:27:11;;;;;;;2.35;1.00;;;20.00;58.70;;;;;;5045352;28;20238;-60
2023/06/03 12:29:43;;;;;;;3.70;0.90;;;19.90;58.30;;;;;;5037800;28;20199;-60
2023/06/03 12:32:10;;;;;;;1.58;0.90;;;20.00;58.70;;;;;;5037470;28;20196;-59
2023/06/03 12:34:37;;;;;;;1.20;0.90;;;19.90;59.00;;;;;;5028053;28;20333;-59
2023/06/03 12:37:05;;;;;;;1.63;1.05;;;19.90;58.90;;;;;;5027614;28;20210;-59
2023/06/03 12:39:43;;;;;;;1.45;0.80;;;20.00;59.20;;;;;;5038787;28;20336;-59
2023/06/03 12:42:11;;;;;;;1.02;0.77;;;20.00;58.80;;;;;;5044632;28;20194;-59
2023/06/03 12:44:47;;;;;;;1.20;0.90;;;20.00;59.10;;;;;;5034924;28;20203;-59
2023/06/03 12:47:15;;;;;;;1.20;0.90;;;19.90;58.90;;;;;;5039371;28;20610;-60
2023/06/03 12:49:42;;;;;;;1.70;1.00;;;20.00;58.80;;;;;;5034895;28;20196;-60
2023/06/03 12:52:15;;;;;;;1.58;0.98;;;20.00;59.00;;;;;;5043446;28;20575;-60
2023/06/03 12:54:42;;;;;;;2.17;0.80;;;20.00;58.70;;;;;;5032968;28;20285;-60
2023/06/03 12:57:09;;;;;;;1.25;0.90;;;20.00;59.00;;;;;;5031656;28;20203;-60
2023/06/03 12:59:36;;;;;;;1.10;0.90;;;20.00;58.70;;;;;;5040051;28;20207;-60